Time;durP1;ratioP1;P1;durP2;ratioP2;P2;SDS_P1;SDS_P2;PMS_P1;PMS_P2;Temp;Humidity;BMP_temperature;BMP_pressure;BME280_temperature;BME280_humidity;BME280_pressure;Samples;Min_cycle;Max_cycle;Signal;HPM_P1;HPM_P2
2021/11/02 00:01:08;;;;;;;40.65;25.23;;;;;;;7.61;61.49;98887.41;5011606;28;20079;-74
2021/11/02 00:03:36;;;;;;;46.50;28.50;;;;;;;7.59;61.67;98890.16;5048110;28;20051;-75
2021/11/02 00:06:03;;;;;;;48.88;32.13;;;;;;;7.58;61.76;98887.66;5049168;28;20679;-75
2021/11/02 00:08:30;;;;;;;44.05;26.42;;;;;;;7.57;61.78;98888.63;5050001;28;20045;-77
2021/11/02 00:10:57;;;;;;;43.05;26.63;;;;;;;7.57;61.91;98880.75;5049118;28;20413;-76
2021/11/02 00:13:34;;;;;;;41.67;26.30;;;;;;;7.54;61.94;98873.09;5050775;28;20049;-73
2021/11/02 00:16:06;;;;;;;43.05;27.23;;;;;;;7.52;61.76;98875.84;5053616;28;20665;-75
2021/11/02 00:18:35;;;;;;;43.75;27.77;;;;;;;7.52;61.70;98877.66;5049361;28;20061;-75
2021/11/02 00:21:03;;;;;;;45.13;28.50;;;;;;;7.47;61.84;98873.63;5052741;28;20049;-76
2021/11/02 00:23:37;;;;;;;50.80;31.55;;;;;;;7.45;62.15;98867.66;5052243;28;20061;-77
2021/11/02 00:26:04;;;;;;;43.85;25.83;;;;;;;7.42;62.23;98870.53;5054389;28;20058;-73
2021/11/02 00:28:31;;;;;;;45.72;27.27;;;;;;;7.44;62.28;98870.41;5058553;28;20496;-75
2021/11/02 00:30:58;;;;;;;44.53;27.35;;;;;;;7.45;62.17;98858.91;5057954;28;20105;-74
2021/11/02 00:33:25;;;;;;;41.67;26.23;;;;;;;7.49;62.02;98856.88;5053330;28;20045;-75
2021/11/02 00:35:54;;;;;;;46.15;28.05;;;;;;;7.58;62.07;98854.34;5057170;28;20123;-75
2021/11/02 00:38:21;;;;;;;42.08;24.75;;;;;;;7.72;61.62;98853.19;5053666;28;20099;-75
2021/11/02 00:40:48;;;;;;;39.65;24.20;;;;;;;7.93;61.26;98860.25;5054849;28;20045;-74
2021/11/02 00:43:15;;;;;;;50.50;31.45;;;;;;;8.04;61.05;98868.88;5054147;28;20040;-74
2021/11/02 00:45:44;;;;;;;43.92;26.40;;;;;;;8.13;61.06;98866.47;5052435;28;20523;-74
2021/11/02 00:48:13;;;;;;;43.97;27.52;;;;;;;8.19;60.85;98851.00;5050277;28;20049;-76
2021/11/02 00:50:43;;;;;;;39.17;24.10;;;;;;;8.17;60.91;98844.19;5048816;28;20045;-75
2021/11/02 00:53:13;;;;;;;41.22;29.00;;;;;;;8.17;61.07;98841.56;5049556;28;20121;-74
2021/11/02 00:55:41;;;;;;;46.47;30.17;;;;;;;8.17;61.14;98846.81;5051654;28;20057;-77
2021/11/02 00:58:08;;;;;;;47.50;27.73;;;;;;;8.23;61.00;98833.16;5052812;28;20049;-76
2021/11/02 01:00:38;;;;;;;41.15;26.98;;;;;;;8.21;60.92;98828.03;5057191;28;20049;-75
2021/11/02 01:03:07;;;;;;;37.15;25.60;;;;;;;8.20;61.07;98823.72;5055904;28;20049;-74
2021/11/02 01:05:35;;;;;;;44.42;27.15;;;;;;;8.15;61.12;98849.56;5055137;28;20052;-75
2021/11/02 01:08:02;;;;;;;42.53;25.58;;;;;;;8.21;60.94;98842.94;5059217;28;20055;-77
2021/11/02 01:10:31;;;;;;;44.05;27.02;;;;;;;8.20;60.92;98831.59;5055516;28;20049;-76
2021/11/02 01:12:58;;;;;;;41.88;26.42;;;;;;;8.11;61.16;98839.47;5056068;28;20423;-78
2021/11/02 01:15:28;;;;;;;52.70;27.95;;;;;;;8.01;61.30;98842.03;5055367;28;20041;-75
2021/11/02 01:17:56;;;;;;;45.55;25.90;;;;;;;7.89;61.38;98859.69;5055257;28;20132;-74
2021/11/02 01:20:24;;;;;;;41.70;26.98;;;;;;;7.81;61.51;98855.06;5054910;28;20114;-77
2021/11/02 01:22:51;;;;;;;43.78;24.70;;;;;;;7.75;61.70;98852.94;5055705;28;20041;-74
2021/11/02 01:25:21;;;;;;;34.00;22.98;;;;;;;7.68;61.73;98856.22;5055555;28;20127;-74
2021/11/02 01:27:50;;;;;;;41.55;26.75;;;;;;;7.62;61.72;98847.88;5051312;28;20135;-73
2021/11/02 01:30:17;;;;;;;41.38;24.15;;;;;;;7.60;61.78;98848.97;5060069;28;20045;-74
2021/11/02 01:32:44;;;;;;;41.05;25.33;;;;;;;7.55;61.74;98851.13;5053711;28;20055;-75
2021/11/02 01:35:11;;;;;;;42.53;25.05;;;;;;;7.51;61.75;98840.03;5055321;28;20405;-75
2021/11/02 01:37:39;;;;;;;40.33;26.08;;;;;;;7.47;61.86;98838.59;5055276;28;20051;-73
2021/11/02 01:40:08;;;;;;;42.40;24.98;;;;;;;7.43;61.82;98832.78;5054113;28;20049;-74
2021/11/02 01:42:35;;;;;;;40.83;26.30;;;;;;;7.38;61.85;98824.47;5051200;28;20068;-74
2021/11/02 01:45:05;;;;;;;48.67;27.45;;;;;;;7.31;62.07;98825.06;5053039;28;20045;-76
2021/11/02 01:47:34;;;;;;;50.63;28.08;;;;;;;7.25;62.26;98818.53;5051293;28;20044;-72
2021/11/02 01:50:02;;;;;;;39.60;26.15;;;;;;;7.21;62.26;98827.63;5056112;28;20072;-74
2021/11/02 01:52:28;;;;;;;41.50;28.55;;;;;;;7.17;62.30;98823.59;5058221;28;20041;-74
2021/11/02 01:54:55;;;;;;;42.83;29.92;;;;;;;7.13;62.38;98830.88;5055531;28;20048;-74
2021/11/02 01:57:22;;;;;;;45.65;26.60;;;;;;;7.10;62.48;98825.03;5052020;28;20063;-75
2021/11/02 01:59:50;;;;;;;49.03;27.45;;;;;;;7.08;62.41;98822.53;5054158;28;20045;-74
2021/11/02 02:02:30;;;;;;;44.13;27.25;;;;;;;7.10;62.52;98819.78;5056476;28;20049;-74
2021/11/02 02:05:05;;;;;;;46.85;31.63;;;;;;;7.17;62.43;98807.84;5053678;28;20082;-75
2021/11/02 02:07:39;;;;;;;49.00;29.17;;;;;;;7.32;62.23;98809.19;5052200;28;20683;-74
2021/11/02 02:10:13;;;;;;;44.17;28.83;;;;;;;7.48;62.00;98829.78;5053285;28;20053;-73
2021/11/02 02:12:56;;;;;;;42.22;24.77;;;;;;;7.66;61.58;98814.28;5052560;28;20060;-75
2021/11/02 02:15:25;;;;;;;51.38;29.38;;;;;;;7.77;61.33;98835.25;5053038;28;20045;-74
2021/11/02 02:17:57;;;;;;;47.63;27.95;;;;;;;7.85;61.15;98822.31;5053654;28;20053;-75
2021/11/02 02:20:50;;;;;;;35.92;24.80;;;;;;;7.95;60.98;98811.00;5055702;28;20095;-73
2021/11/02 02:23:31;;;;;;;41.88;23.45;;;;;;;8.04;60.92;98804.97;5056519;28;20045;-75
2021/11/02 02:26:01;;;;;;;46.03;27.45;;;;;;;8.02;60.75;98801.63;5050836;28;20044;-75
2021/11/02 02:28:32;;;;;;;46.15;26.73;;;;;;;8.03;60.69;98795.38;5052029;28;20394;-74
2021/11/02 02:31:03;;;;;;;41.45;27.10;;;;;;;8.07;60.74;98803.84;5055104;28;20041;-75
2021/11/02 02:33:34;;;;;;;41.25;25.95;;;;;;;8.04;60.71;98807.59;5053682;28;20045;-74
2021/11/02 02:36:02;;;;;;;44.72;28.05;;;;;;;7.91;60.96;98796.47;5056425;28;20049;-75
2021/11/02 02:38:32;;;;;;;40.75;26.92;;;;;;;7.72;61.32;98802.41;5057558;28;20041;-74
2021/11/02 02:41:00;;;;;;;48.42;28.23;;;;;;;7.60;61.38;98793.78;5051231;28;20076;-73
2021/11/02 02:43:29;;;;;;;44.53;27.98;;;;;;;7.49;61.45;98792.06;5055013;28;20052;-73
2021/11/02 02:46:00;;;;;;;48.22;27.08;;;;;;;7.38;61.85;98784.22;5051304;28;20044;-74
2021/11/02 02:48:28;;;;;;;43.92;25.35;;;;;;;7.28;61.96;98773.66;5055223;28;20132;-73
2021/11/02 02:50:57;;;;;;;43.30;28.58;;;;;;;7.21;62.00;98760.19;5052111;28;20083;-74
2021/11/02 02:53:25;;;;;;;39.33;25.67;;;;;;;7.15;62.09;98757.22;5051481;28;20055;-73
2021/11/02 02:55:54;;;;;;;37.38;22.63;;;;;;;7.07;62.13;98753.44;5053156;28;20372;-73
2021/11/02 02:58:23;;;;;;;44.78;27.50;;;;;;;7.04;62.13;98758.94;5053409;28;20106;-77
2021/11/02 03:00:50;;;;;;;43.60;25.48;;;;;;;6.99;62.23;98757.66;5055752;28;20624;-75
2021/11/02 03:03:21;;;;;;;47.25;28.15;;;;;;;6.96;62.32;98758.72;5055306;28;20049;-75
2021/11/02 03:05:49;;;;;;;45.55;26.15;;;;;;;6.95;62.22;98759.72;5052418;28;20083;-74
2021/11/02 03:08:17;;;;;;;51.70;29.67;;;;;;;7.00;62.10;98760.13;5048562;28;20045;-75
2021/11/02 03:10:45;;;;;;;48.53;29.65;;;;;;;7.04;62.18;98764.19;5047288;28;20179;-73
2021/11/02 03:13:15;;;;;;;48.05;28.98;;;;;;;7.13;62.02;98761.75;5046216;28;20145;-76
2021/11/02 03:15:56;;;;;;;48.85;29.25;;;;;;;7.20;61.83;98753.28;5046462;28;20582;-74
2021/11/02 03:18:54;;;;;;;48.45;28.25;;;;;;;7.30;61.62;98752.50;5047151;28;20576;-74
2021/11/02 03:49:12;;;;;;;47.47;27.40;;;;;;;7.84;60.54;98740.94;5004272;28;20065;-75
2021/11/02 03:57:19;;;;;;;;;;;;;;;8.12;60.00;98738.56;5004401;28;20050;-74
2021/11/02 04:30:41;;;;;;;48.65;30.17;;;;;;;7.79;60.46;98733.44;4945591;28;20055;-74
2021/11/02 05:46:47;;;;;;;48.95;30.90;;;;;;;8.04;60.13;98707.66;4823255;29;20111;-75
2021/11/02 05:49:22;;;;;;;44.58;27.80;;;;;;;8.11;60.02;98710.59;4909417;29;20044;-76
2021/11/02 05:57:37;;;;;;;46.92;27.42;;;;;;;8.19;60.05;98716.88;5007613;28;20050;-78
2021/11/02 06:00:10;;;;;;;50.05;30.25;;;;;;;8.22;60.11;98721.03;5011397;28;20144;-77
2021/11/02 06:02:48;;;;;;;46.47;26.30;;;;;;;8.31;59.95;98717.56;5061584;28;20052;-76
2021/11/02 06:28:14;;;;;;;43.25;26.95;;;;;;;9.18;58.53;98732.69;4913777;29;20133;-81
2021/11/02 06:30:47;;;;;;;42.47;25.80;;;;;;;9.25;58.23;98726.84;4913464;29;20060;-79
2021/11/02 06:36:08;;;;;;;43.08;26.13;;;;;;;9.32;58.10;98710.31;4908701;29;20112;-80
2021/11/02 06:44:47;;;;;;;44.42;27.55;;;;;;;9.41;57.92;98705.19;4918070;28;20066;-81
2021/11/02 06:56:52;;;;;;;40.67;25.88;;;;;;;9.61;57.51;98717.31;4992004;28;20061;-79
2021/11/02 06:59:42;;;;;;;38.28;24.85;;;;;;;9.64;57.18;98722.31;5005709;28;20049;-81
2021/11/02 07:19:26;;;;;;;44.22;26.85;;;;;;;9.72;57.33;98726.88;5009041;28;20203;-80
2021/11/02 07:22:05;;;;;;;44.40;26.88;;;;;;;9.77;57.36;98706.19;5009652;28;20045;-80
2021/11/02 07:24:37;;;;;;;41.42;26.33;;;;;;;9.81;57.16;98715.47;5013149;28;20076;-80
2021/11/02 07:27:17;;;;;;;45.17;29.65;;;;;;;9.85;57.24;98706.31;5015885;28;20038;-80
2021/11/02 08:45:33;;;;;;;47.90;27.15;;;;;;;10.73;55.47;98699.72;4968946;28;20058;-80
2021/11/02 08:48:01;;;;;;;49.80;29.45;;;;;;;10.79;55.32;98693.88;4967750;28;20070;-80
2021/11/02 08:50:33;;;;;;;42.58;30.77;;;;;;;10.71;55.42;98697.25;4950915;28;20049;-81
2021/11/02 08:53:02;;;;;;;46.35;29.60;;;;;;;10.67;55.77;98693.25;4962205;28;20634;-80
2021/11/02 08:55:31;;;;;;;46.22;28.83;;;;;;;10.73;55.47;98691.81;4967122;28;20127;-79
2021/11/02 08:58:01;;;;;;;46.30;28.33;;;;;;;10.88;55.37;98693.78;4968760;28;20133;-81
2021/11/02 09:00:29;;;;;;;42.83;25.27;;;;;;;11.04;54.82;98701.00;4965495;28;20053;-80
2021/11/02 09:03:07;;;;;;;46.63;27.55;;;;;;;11.13;54.62;98699.28;4965278;28;20188;-81
2021/11/02 09:05:37;;;;;;;40.53;25.83;;;;;;;11.17;54.62;98697.97;5045619;28;20272;-81
2021/11/02 09:08:09;;;;;;;44.95;28.38;;;;;;;11.24;54.58;98701.66;5047337;28;20060;-80
2021/11/02 09:10:41;;;;;;;38.70;27.58;;;;;;;11.21;54.50;98701.16;5045441;28;20110;-83
2021/11/02 09:13:10;;;;;;;43.95;25.40;;;;;;;11.24;54.43;98704.31;5047170;28;20057;-82
2021/11/02 09:15:39;;;;;;;42.60;25.40;;;;;;;11.32;54.28;98708.81;5051739;28;20057;-82
2021/11/02 09:18:09;;;;;;;42.55;28.23;;;;;;;11.38;54.25;98710.00;5045758;28;20057;-82
2021/11/02 09:20:36;;;;;;;42.83;27.20;;;;;;;11.32;54.30;98708.81;5051664;28;20279;-81
2021/11/02 09:23:04;;;;;;;46.80;29.48;;;;;;;11.29;54.38;98709.97;5048280;28;20547;-80
2021/11/02 09:25:32;;;;;;;44.25;29.02;;;;;;;11.26;54.25;98707.63;5049187;28;20052;-82
2021/11/02 09:28:01;;;;;;;40.33;27.52;;;;;;;11.28;54.30;98702.19;5048984;28;20511;-83
2021/11/02 09:30:29;;;;;;;42.83;27.33;;;;;;;11.27;54.33;98703.16;5060952;28;20044;-80
2021/11/02 09:32:58;;;;;;;38.97;26.42;;;;;;;11.27;54.16;98711.94;5050069;28;20531;-80
2021/11/02 09:35:27;;;;;;;44.67;30.55;;;;;;;11.21;54.53;98707.25;5050869;28;20206;-80
2021/11/02 09:38:05;;;;;;;44.08;28.63;;;;;;;11.09;54.73;98700.53;5049982;28;20057;-80
2021/11/02 09:41:06;;;;;;;49.28;28.83;;;;;;;11.09;54.66;98708.47;5048973;28;20063;-80
2021/11/02 09:44:13;;;;;;;40.38;27.42;;;;;;;11.08;54.69;98707.66;5052206;28;20140;-81
2021/11/02 09:47:24;;;;;;;45.63;32.35;;;;;;;11.16;54.69;98698.94;5050484;28;20136;-78
2021/11/02 09:50:14;;;;;;;40.33;27.02;;;;;;;11.17;54.63;98705.09;4967764;28;20051;-79
2021/11/02 09:53:17;;;;;;;41.92;28.20;;;;;;;11.18;54.73;98702.28;4929002;29;20047;-81
2021/11/02 09:56:08;;;;;;;45.50;31.00;;;;;;;11.12;55.09;98702.88;4926142;29;20082;-80
2021/11/02 09:59:17;;;;;;;50.53;31.42;;;;;;;11.09;55.04;98703.19;4890897;29;20151;-82
2021/11/02 10:01:50;;;;;;;46.08;30.33;;;;;;;11.07;55.12;98699.88;4903372;29;20055;-81
2021/11/02 10:05:01;;;;;;;55.55;37.95;;;;;;;11.05;55.65;98701.84;4907929;29;20120;-79
2021/11/02 10:07:51;;;;;;;55.03;35.47;;;;;;;10.88;55.99;98704.34;4888478;29;20229;-80
2021/11/02 10:10:22;;;;;;;54.33;36.83;;;;;;;10.87;56.22;98705.31;4872795;29;20164;-79
2021/11/02 10:12:59;;;;;;;55.28;36.88;;;;;;;10.86;56.46;98697.56;4875107;29;20065;-81
2021/11/02 10:15:51;;;;;;;55.08;36.33;;;;;;;10.89;56.58;98698.09;4874656;29;20057;-82
2021/11/02 10:18:45;;;;;;;66.65;37.13;;;;;;;10.97;56.58;98688.56;4874461;29;20101;-81
2021/11/02 10:21:54;;;;;;;52.60;34.88;;;;;;;10.99;56.45;98690.06;4880887;29;20053;-81
2021/11/02 10:25:06;;;;;;;55.58;34.95;;;;;;;11.03;56.53;98682.66;4874605;29;20061;-81
2021/11/02 10:28:18;;;;;;;48.10;31.20;;;;;;;10.96;56.50;98678.97;4933800;29;20043;-81
2021/11/02 10:30:55;;;;;;;43.80;29.92;;;;;;;10.93;56.50;98684.56;4907774;29;20673;-79
2021/11/02 10:33:24;;;;;;;42.92;26.35;;;;;;;10.97;56.54;98672.72;4895195;29;20725;-81
2021/11/02 10:36:17;;;;;;;42.55;29.70;;;;;;;11.03;56.48;98674.75;4909193;29;20072;-80
2021/11/02 10:38:57;;;;;;;47.65;28.45;;;;;;;10.97;56.82;98672.72;4910738;29;20048;-81
2021/11/02 10:41:35;;;;;;;42.75;27.00;;;;;;;10.95;57.06;98664.94;4909771;29;20055;-80
2021/11/02 10:44:16;;;;;;;42.92;26.88;;;;;;;10.84;57.28;98660.72;4944861;28;20052;-81
2021/11/02 10:46:57;;;;;;;45.97;28.33;;;;;;;10.75;57.68;98653.72;4945819;28;20055;-80
2021/11/02 10:49:31;;;;;;;44.65;31.05;;;;;;;10.72;58.11;98656.66;4946921;28;20058;-79
2021/11/02 10:52:04;;;;;;;52.65;31.17;;;;;;;10.67;58.31;98657.09;4949637;28;20047;-80
2021/11/02 10:54:57;;;;;;;41.17;28.02;;;;;;;10.63;58.35;98650.47;4947286;28;20051;-81
2021/11/02 10:57:52;;;;;;;42.42;27.92;;;;;;;10.46;58.69;98646.84;4889671;29;20059;-79
2021/11/02 11:00:21;;;;;;;51.00;32.60;;;;;;;10.29;59.46;98645.00;4895895;29;20068;-80
2021/11/02 11:02:52;;;;;;;52.85;30.98;;;;;;;10.13;59.72;98646.47;4893602;29;20059;-80
2021/11/02 11:05:20;;;;;;;52.05;33.10;;;;;;;10.09;59.97;98652.19;4890327;29;20059;-79
2021/11/02 11:07:52;;;;;;;51.15;32.78;;;;;;;10.12;60.07;98642.19;4943897;28;20068;-79
2021/11/02 11:10:20;;;;;;;51.55;33.90;;;;;;;10.12;60.14;98649.28;4986107;28;20556;-79
2021/11/02 11:20:18;;;;;;;55.15;35.00;;;;;;;10.38;59.84;98652.03;4986532;28;20056;-78
2021/11/02 11:22:51;;;;;;;52.83;35.30;;;;;;;10.39;59.90;98647.59;4906199;29;20048;-79
2021/11/02 11:25:26;;;;;;;59.08;35.78;;;;;;;10.35;60.25;98652.31;4906576;29;20152;-79
2021/11/02 11:27:56;;;;;;;62.13;39.42;;;;;;;10.36;60.56;98653.19;4907992;29;20082;-78
2021/11/02 11:30:26;;;;;;;55.13;34.70;;;;;;;10.39;60.54;98644.94;4908792;29;20115;-79
2021/11/02 11:32:55;;;;;;;50.40;30.48;;;;;;;10.46;60.40;98643.38;4909265;29;20050;-80
2021/11/02 11:35:22;;;;;;;55.30;34.17;;;;;;;10.55;60.14;98641.63;4946080;28;20078;-79
2021/11/02 11:37:55;;;;;;;50.90;31.45;;;;;;;10.62;60.01;98654.06;4967085;28;20054;-79
2021/11/02 11:40:24;;;;;;;49.95;30.60;;;;;;;10.65;60.23;98648.50;4964895;28;20300;-78
2021/11/02 11:42:54;;;;;;;50.60;32.75;;;;;;;10.67;60.18;98653.63;4964718;28;20051;-79
2021/11/02 11:45:25;;;;;;;49.30;29.27;;;;;;;10.66;60.24;98639.63;4965879;28;20371;-80
2021/11/02 11:48:06;;;;;;;50.45;30.45;;;;;;;10.56;60.49;98635.38;4966547;28;20047;-79
2021/11/02 11:50:34;;;;;;;51.40;31.17;;;;;;;10.51;60.51;98659.59;4966052;28;20640;-80
2021/11/02 11:53:11;;;;;;;51.60;31.90;;;;;;;10.55;60.62;98652.19;4964015;28;20562;-79
2021/11/02 11:55:39;;;;;;;53.80;32.92;;;;;;;10.59;60.59;98659.69;4965853;28;20074;-79
2021/11/02 11:58:18;;;;;;;48.55;31.38;;;;;;;10.67;60.54;98658.91;5043272;28;20041;-81
2021/11/02 12:00:47;;;;;;;48.15;31.48;;;;;;;10.71;60.42;98650.56;5047509;28;20501;-81
2021/11/02 12:03:41;;;;;;;51.53;32.97;;;;;;;10.80;60.47;98658.53;5047733;28;20522;-79
2021/11/02 12:06:18;;;;;;;54.75;33.00;;;;;;;10.84;60.71;98663.38;5047173;28;20499;-79
2021/11/02 12:08:53;;;;;;;47.45;31.55;;;;;;;10.89;60.36;98657.63;5049242;28;20162;-79
2021/11/02 12:11:23;;;;;;;48.28;34.47;;;;;;;10.94;60.47;98657.19;5048577;28;20667;-80
2021/11/02 12:13:54;;;;;;;52.97;36.92;;;;;;;10.94;60.80;98658.00;5049863;28;20316;-79
2021/11/02 12:16:35;;;;;;;46.67;32.45;;;;;;;10.92;60.98;98664.41;5048133;28;20661;-79
2021/11/02 12:19:05;;;;;;;53.30;32.88;;;;;;;10.98;60.78;98659.34;5047327;28;20128;-77
2021/11/02 12:21:34;;;;;;;47.80;32.70;;;;;;;11.04;60.72;98660.56;5048753;28;20247;-77
2021/11/02 12:24:05;;;;;;;58.83;37.35;;;;;;;10.99;61.36;98662.84;5046231;28;20044;-79
2021/11/02 12:26:41;;;;;;;50.22;32.35;;;;;;;11.00;61.30;98662.69;5047309;28;20049;-79
2021/11/02 12:29:10;;;;;;;;;;;;;;;11.27;60.39;98656.44;5033250;28;20052;-79
2021/11/02 12:31:37;;;;;;;66.80;35.63;;;;;;;11.05;61.07;98659.56;5048504;28;19962;-78
2021/11/02 12:34:13;;;;;;;51.75;33.72;;;;;;;11.02;61.33;98660.72;5046325;28;20041;-78
2021/11/02 12:36:46;;;;;;;;;;;;;;;11.31;60.27;98664.03;5049877;28;20053;-79
2021/11/02 12:39:17;;;;;;;44.92;30.15;;;;;;;11.09;60.77;98658.25;5046138;28;19974;-79
2021/11/02 12:41:50;;;;;;;56.55;36.92;;;;;;;10.92;61.89;98656.50;5044739;28;20041;-79
2021/11/02 12:44:20;;;;;;;48.47;33.78;;;;;;;10.90;61.94;98660.09;5046856;28;20288;-79
2021/11/02 12:46:49;;;;;;;50.22;34.97;;;;;;;10.88;62.18;98664.72;5028079;28;20076;-78
2021/11/02 12:49:19;;;;;;;49.40;34.10;;;;;;;10.93;62.29;98666.06;5045768;28;20148;-79
2021/11/02 12:51:54;;;;;;;52.70;32.90;;;;;;;10.94;62.14;98667.75;5043383;28;20139;-79
2021/11/02 12:54:27;;;;;;;;;;;;;;;11.17;61.29;98671.56;5038645;28;20141;-78
2021/11/02 12:56:58;;;;;;;54.00;33.45;;;;;;;10.88;62.39;98670.00;5049398;28;19925;-80
2021/11/02 12:59:35;;;;;;;48.70;32.25;;;;;;;10.87;62.39;98665.69;5048505;28;20048;-79
2021/11/02 13:02:19;;;;;;;54.70;35.40;;;;;;;10.85;62.67;98665.00;5048607;28;20041;-79
2021/11/02 13:05:01;;;;;;;51.47;33.17;;;;;;;10.87;62.62;98665.69;5049496;28;20136;-79
2021/11/02 13:07:35;;;;;;;56.47;37.08;;;;;;;10.84;62.79;98668.66;5048933;28;20128;-80
2021/11/02 13:10:05;;;;;;;51.63;34.92;;;;;;;10.87;62.77;98672.78;5049999;28;20064;-78
2021/11/02 13:12:35;;;;;;;54.60;33.42;;;;;;;10.90;62.98;98662.75;5049251;28;20059;-81
2021/11/02 13:15:10;;;;;;;47.33;33.92;;;;;;;10.84;63.27;98670.44;5053673;28;20086;-76
2021/11/02 13:17:43;;;;;;;54.17;33.55;;;;;;;10.84;63.05;98667.81;5048825;28;20045;-78
2021/11/02 13:20:12;;;;;;;57.63;34.85;;;;;;;10.73;63.62;98670.69;5047646;28;20053;-78
2021/11/02 13:22:49;;;;;;;56.72;36.70;;;;;;;10.70;63.59;98664.72;5046759;28;20064;-76
2021/11/02 13:25:23;;;;;;;62.35;40.58;;;;;;;10.70;63.64;98667.38;5049210;28;20045;-78
2021/11/02 13:27:55;;;;;;;62.05;37.42;;;;;;;10.67;63.82;98667.66;5045816;28;20559;-79
2021/11/02 13:30:27;;;;;;;61.38;38.65;;;;;;;10.70;64.02;98666.53;5047453;28;20053;-77
2021/11/02 13:33:01;;;;;;;59.40;37.88;;;;;;;10.70;64.08;98670.00;5047227;28;20485;-79
2021/11/02 13:35:40;;;;;;;60.42;38.15;;;;;;;10.72;64.15;98667.22;5047231;28;20052;-77
2021/11/02 13:38:35;;;;;;;67.43;41.55;;;;;;;10.73;64.09;98668.88;5048504;28;20056;-78
2021/11/02 13:41:09;;;;;;;64.93;36.97;;;;;;;10.68;63.92;98665.88;4991908;28;20109;-78
2021/11/02 13:43:39;;;;;;;64.45;38.92;;;;;;;10.61;64.22;98667.47;4984236;28;20363;-77
2021/11/02 13:46:08;;;;;;;63.47;38.65;;;;;;;10.62;64.37;98663.81;4983813;28;20054;-77
2021/11/02 13:48:35;;;;;;;59.38;35.78;;;;;;;10.61;64.22;98672.75;4966334;28;20046;-79
2021/11/02 13:51:04;;;;;;;59.95;36.88;;;;;;;10.59;64.19;98670.25;4969991;28;20050;-76
2021/11/02 13:53:34;;;;;;;60.60;37.45;;;;;;;10.57;64.46;98664.28;4986212;28;20046;-78
2021/11/02 13:56:02;;;;;;;59.72;37.25;;;;;;;10.55;64.46;98662.75;4986889;28;20053;-78
2021/11/02 13:58:32;;;;;;;57.17;37.15;;;;;;;10.54;64.53;98667.22;4988047;28;20116;-78
2021/11/02 14:00:59;;;;;;;62.42;39.10;;;;;;;10.52;64.60;98667.38;4987318;28;20093;-80
2021/11/02 14:03:31;;;;;;;73.93;40.92;;;;;;;10.49;64.74;98672.09;4984209;28;20204;-77
2021/11/02 14:05:59;;;;;;;62.92;37.28;;;;;;;10.45;65.00;98674.22;4986558;28;20058;-78
2021/11/02 14:08:29;;;;;;;64.43;36.95;;;;;;;10.50;64.84;98665.88;4983659;28;20053;-78
2021/11/02 14:10:58;;;;;;;72.78;41.47;;;;;;;10.45;64.93;98674.22;4985699;28;20042;-78
2021/11/02 14:13:45;;;;;;;71.40;41.22;;;;;;;10.50;65.12;98663.22;4986219;28;20918;-78
2021/11/02 14:16:14;;;;;;;67.07;42.25;;;;;;;10.52;65.00;98670.00;4987152;28;20132;-77
2021/11/02 14:18:41;;;;;;;67.47;40.92;;;;;;;10.46;65.36;98673.25;5047072;28;20056;-77
2021/11/02 14:21:12;;;;;;;70.10;40.67;;;;;;;10.47;65.38;98664.34;5046047;28;20057;-78
2021/11/02 14:23:42;;;;;;;78.82;42.45;;;;;;;10.46;65.33;98660.06;5043089;28;20053;-77
2021/11/02 14:26:22;;;;;;;77.15;43.70;;;;;;;10.48;65.54;98659.91;5043861;28;20059;-77
2021/11/02 14:28:52;;;;;;;72.38;43.40;;;;;;;10.47;65.53;98664.34;5045155;28;20045;-78
2021/11/02 14:31:59;;;;;;;78.20;46.08;;;;;;;10.47;65.66;98660.88;5051456;28;20052;-77
2021/11/02 14:34:45;;;;;;;81.82;48.30;;;;;;;10.46;65.73;98673.25;5066719;28;20670;-77
2021/11/02 14:37:15;;;;;;;73.50;42.40;;;;;;;10.45;65.62;98657.56;5063439;28;20548;-77
2021/11/02 14:40:04;;;;;;;70.05;41.00;;;;;;;10.50;65.66;98664.03;5063214;28;20113;-76
2021/11/02 14:42:42;;;;;;;78.32;42.50;;;;;;;10.53;65.53;98665.53;5064027;28;20052;-77
2021/11/02 14:45:12;;;;;;;64.38;40.47;;;;;;;10.50;65.73;98655.31;5065185;28;20052;-77
2021/11/02 14:47:39;;;;;;;72.97;42.20;;;;;;;10.48;65.78;98663.38;5063627;28;20106;-76
2021/11/02 14:50:31;;;;;;;81.13;45.72;;;;;;;10.47;66.02;98656.41;5063711;28;20135;-75
2021/11/02 14:53:16;;;;;;;77.80;45.13;;;;;;;10.49;65.93;98651.00;5061408;28;20056;-77
2021/11/02 14:55:54;;;;;;;74.68;42.50;;;;;;;10.49;65.99;98651.00;5063020;28;20113;-77
2021/11/02 14:58:44;;;;;;;72.43;43.67;;;;;;;10.51;65.98;98657.81;5063508;28;20044;-76
2021/11/02 15:01:15;;;;;;;78.95;45.40;;;;;;;10.46;66.04;98649.50;5064013;28;20040;-71
2021/11/02 15:03:42;;;;;;;81.90;47.20;;;;;;;10.45;66.28;98653.09;5068617;28;20597;-77
2021/11/02 15:06:12;;;;;;;73.45;44.33;;;;;;;10.49;66.16;98654.44;5064515;28;20056;-76
2021/11/02 15:08:42;;;;;;;70.53;42.80;;;;;;;10.51;66.14;98660.44;5068018;28;20655;-77
2021/11/02 15:11:10;;;;;;;72.18;43.05;;;;;;;10.55;66.20;98657.47;5064893;28;20208;-74
2021/11/02 15:13:38;;;;;;;88.30;46.65;;;;;;;10.56;66.18;98653.88;5062419;28;20044;-77
2021/11/02 15:16:07;;;;;;;72.70;42.22;;;;;;;10.57;65.99;98650.22;5060154;28;20143;-74
2021/11/02 15:18:46;;;;;;;74.65;43.67;;;;;;;10.56;66.46;98657.34;5061278;28;20045;-74
2021/11/02 15:21:17;;;;;;;74.32;41.70;;;;;;;10.58;66.13;98663.28;5062188;28;20104;-73
2021/11/02 15:23:50;;;;;;;69.53;40.00;;;;;;;10.63;66.33;98654.94;5060978;28;20045;-77
2021/11/02 15:26:17;;;;;;;67.20;39.60;;;;;;;10.68;66.20;98660.59;5064641;28;20157;-76
2021/11/02 15:28:49;;;;;;;64.45;37.22;;;;;;;10.72;65.96;98661.94;5067310;28;20044;-77
2021/11/02 15:31:19;;;;;;;69.10;40.45;;;;;;;10.77;66.02;98662.31;5065014;28;20389;-78
2021/11/02 15:33:48;;;;;;;67.90;35.67;;;;;;;10.79;66.02;98663.00;5070583;28;20044;-74
2021/11/02 15:36:19;;;;;;;72.60;39.20;;;;;;;10.80;66.03;98664.63;5075521;28;20051;-75
2021/11/02 15:39:00;;;;;;;63.17;35.78;;;;;;;10.83;65.88;98669.63;5073133;28;20051;-75
2021/11/02 15:41:28;;;;;;;67.25;38.05;;;;;;;10.83;65.94;98671.44;5071344;28;20551;-76
2021/11/02 15:43:57;;;;;;;62.53;35.03;;;;;;;10.85;66.08;98672.13;5067292;28;20052;-74
2021/11/02 15:46:35;;;;;;;70.20;38.58;;;;;;;10.86;65.97;98671.97;5042915;28;20093;-77
2021/11/02 15:49:08;;;;;;;60.45;36.53;;;;;;;10.86;65.98;98671.97;5064368;28;20058;-75
2021/11/02 15:51:37;;;;;;;67.30;40.10;;;;;;;10.79;66.11;98673.56;5071448;28;20118;-73
2021/11/02 15:54:16;;;;;;;63.72;36.20;;;;;;;10.80;66.16;98675.19;5063834;28;20585;-71
2021/11/02 15:56:44;;;;;;;62.15;37.13;;;;;;;10.80;66.02;98672.56;5065810;28;20049;-74
2021/11/02 15:59:12;;;;;;;65.75;35.17;;;;;;;10.80;65.97;98677.84;5064597;28;20083;-77
2021/11/02 16:01:43;;;;;;;58.90;33.33;;;;;;;10.79;66.20;98673.56;5061348;28;20044;-77
2021/11/02 16:04:19;;;;;;;63.35;36.05;;;;;;;10.78;66.18;98666.59;5061071;28;20132;-74
2021/11/02 16:07:07;;;;;;;63.50;37.65;;;;;;;10.81;66.28;98666.31;5070648;28;20059;-75
2021/11/02 16:09:47;;;;;;;62.55;35.08;;;;;;;10.81;66.32;98663.66;4980167;28;20074;-77
2021/11/02 16:12:17;;;;;;;62.60;35.63;;;;;;;10.81;66.19;98666.31;4979834;28;20047;-73
2021/11/02 16:15:03;;;;;;;64.70;37.10;;;;;;;10.84;66.35;98678.38;4980703;28;20069;-74
2021/11/02 16:17:31;;;;;;;59.05;36.95;;;;;;;10.83;66.38;98677.53;4981326;28;20055;-75
2021/11/02 16:20:00;;;;;;;66.07;39.05;;;;;;;10.83;66.26;98677.53;4981174;28;20043;-75
2021/11/02 16:22:27;;;;;;;63.85;37.63;;;;;;;10.84;66.23;98670.44;4976451;28;20091;-76
2021/11/02 16:25:09;;;;;;;62.65;35.53;;;;;;;10.88;66.35;98670.00;4979819;28;20050;-74
2021/11/02 16:27:37;;;;;;;56.40;37.05;;;;;;;10.89;66.26;98678.75;4980148;28;20640;-77
2021/11/02 16:30:17;;;;;;;58.75;34.13;;;;;;;10.92;66.10;98675.00;4983175;28;20046;-76
2021/11/02 16:32:47;;;;;;;54.33;32.22;;;;;;;10.88;66.20;98683.22;4980934;28;20134;-78
2021/11/02 16:35:31;;;;;;;56.92;34.95;;;;;;;10.91;66.13;98682.06;4982598;28;20692;-75
2021/11/02 16:37:58;;;;;;;60.15;34.25;;;;;;;10.92;66.12;98688.19;4984259;28;20088;-75